Time;durP1;ratioP1;P1;durP2;ratioP2;P2;SDS_P1;SDS_P2;PMS_P1;PMS_P2;Temp;Humidity;BMP_temperature;BMP_pressure;BME280_temperature;BME280_humidity;BME280_pressure;Samples;Min_cycle;Max_cycle;Signal;HPM_P1;HPM_P2
2022/10/11 00:01:57;;;;;;;10.68;3.47;;;6.00;99.90;;;;;;5056714;28;20055;-70
2022/10/11 00:04:23;;;;;;;27.50;5.25;;;6.00;99.90;;;;;;5056317;28;20124;-70
2022/10/11 00:06:49;;;;;;;15.63;3.72;;;6.00;99.90;;;;;;5056794;28;20056;-69
2022/10/11 00:09:15;;;;;;;10.15;3.17;;;6.00;99.90;;;;;;5056836;28;20084;-71
2022/10/11 00:11:41;;;;;;;13.93;3.13;;;6.00;99.90;;;;;;5039432;28;20475;-70
2022/10/11 00:14:06;;;;;;;7.82;2.50;;;5.90;99.90;;;;;;5056439;28;20040;-70
2022/10/11 00:16:32;;;;;;;13.90;3.80;;;5.90;99.90;;;;;;5056769;28;20087;-70
2022/10/11 00:18:58;;;;;;;6.60;2.28;;;5.90;99.90;;;;;;5039383;28;20045;-70
2022/10/11 00:21:23;;;;;;;9.07;3.15;;;5.90;99.90;;;;;;5056472;28;20114;-70
2022/10/11 00:23:49;;;;;;;17.75;3.15;;;5.90;99.90;;;;;;5056423;28;20045;-70
2022/10/11 00:26:15;;;;;;;14.07;3.75;;;5.80;99.90;;;;;;5056531;28;20430;-70
2022/10/11 00:28:41;;;;;;;20.65;3.53;;;5.90;99.90;;;;;;5056270;28;20052;-71
2022/10/11 00:31:09;;;;;;;19.10;3.80;;;5.90;99.90;;;;;;5056314;28;20040;-70
2022/10/11 00:33:34;;;;;;;25.65;4.07;;;5.80;99.90;;;;;;5038813;28;20044;-71
2022/10/11 00:36:00;;;;;;;11.05;3.30;;;5.90;99.90;;;;;;5056011;28;20385;-70
2022/10/11 00:38:26;;;;;;;9.88;3.45;;;5.80;99.90;;;;;;5039180;28;20048;-70
2022/10/11 00:40:51;;;;;;;9.90;2.75;;;5.80;99.90;;;;;;5056175;28;20045;-70
2022/10/11 00:43:20;;;;;;;12.90;3.67;;;5.80;99.90;;;;;;5055918;28;20059;-69
2022/10/11 00:46:00;;;;;;;14.00;2.95;;;5.70;99.90;;;;;;5056401;28;20123;-71
2022/10/11 00:48:28;;;;;;;14.25;3.15;;;5.70;99.90;;;;;;5056137;28;20041;-70
2022/10/11 00:50:55;;;;;;;11.00;2.92;;;5.70;99.90;;;;;;5038257;28;20523;-69
2022/10/11 00:53:22;;;;;;;13.40;3.15;;;5.70;99.90;;;;;;5055820;28;20053;-70
2022/10/11 00:55:52;;;;;;;13.88;3.90;;;5.60;99.90;;;;;;5055952;28;20052;-70
2022/10/11 00:58:19;;;;;;;11.43;2.90;;;5.60;99.90;;;;;;5055729;28;20128;-70
2022/10/11 01:00:45;;;;;;;11.77;2.97;;;5.60;99.90;;;;;;5056412;28;20037;-69
2022/10/11 01:03:11;;;;;;;14.05;2.92;;;5.60;99.90;;;;;;5055697;28;20045;-70
2022/10/11 01:05:38;;;;;;;11.98;3.53;;;5.60;99.90;;;;;;5055766;28;20052;-69
2022/10/11 01:08:05;;;;;;;9.93;3.05;;;5.60;99.90;;;;;;5055869;28;20132;-69
2022/10/11 01:10:31;;;;;;;17.42;3.53;;;5.50;99.90;;;;;;5055729;28;20075;-70
2022/10/11 01:13:20;;;;;;;13.18;3.20;;;5.50;99.90;;;;;;5055565;28;20438;-69
2022/10/11 01:15:54;;;;;;;15.60;3.40;;;5.60;99.90;;;;;;5054788;28;20045;-70
2022/10/11 01:18:34;;;;;;;13.73;3.45;;;5.50;99.90;;;;;;5037886;28;20477;-70
2022/10/11 01:21:21;;;;;;;11.27;2.78;;;5.50;99.90;;;;;;5055118;28;20056;-71
2022/10/11 01:24:05;;;;;;;9.45;2.58;;;5.50;99.90;;;;;;5055325;28;20045;-70
2022/10/11 01:26:54;;;;;;;16.27;3.63;;;5.50;99.90;;;;;;5055455;28;20040;-69
2022/10/11 01:29:48;;;;;;;10.88;3.00;;;5.40;99.90;;;;;;5055106;28;20045;-70
2022/10/11 01:32:19;;;;;;;12.15;3.38;;;5.40;99.90;;;;;;5055393;28;20136;-70
2022/10/11 01:35:02;;;;;;;9.82;3.08;;;5.40;99.90;;;;;;5055107;28;20049;-70
2022/10/11 01:37:37;;;;;;;15.88;2.90;;;5.40;99.90;;;;;;5037893;28;20056;-71
2022/10/11 01:40:34;;;;;;;16.38;3.60;;;5.40;99.90;;;;;;5054951;28;20045;-70
2022/10/11 01:43:02;;;;;;;15.43;3.35;;;5.40;99.90;;;;;;5055712;28;20096;-69
2022/10/11 01:45:29;;;;;;;8.15;3.10;;;5.30;99.90;;;;;;5054547;28;20374;-70
2022/10/11 01:48:10;;;;;;;14.55;3.47;;;5.40;99.90;;;;;;5055279;28;20516;-71
2022/10/11 01:50:48;;;;;;;15.98;3.95;;;5.30;99.90;;;;;;5054856;28;20049;-70
2022/10/11 01:53:19;;;;;;;14.98;3.67;;;5.30;99.90;;;;;;5055232;28;20501;-70
2022/10/11 01:55:50;;;;;;;13.60;3.63;;;5.30;99.90;;;;;;5054983;28;20048;-70
2022/10/11 01:58:31;;;;;;;12.65;3.05;;;5.40;99.90;;;;;;5054756;28;20467;-71
2022/10/11 02:01:03;;;;;;;20.30;3.85;;;5.30;99.90;;;;;;5054611;28;20442;-69
2022/10/11 02:03:43;;;;;;;15.70;3.38;;;5.30;99.90;;;;;;5054756;28;20083;-69
2022/10/11 02:06:26;;;;;;;13.60;3.35;;;5.20;99.90;;;;;;5055273;28;20037;-71
2022/10/11 02:09:16;;;;;;;14.40;3.20;;;5.20;99.90;;;;;;5055204;28;20113;-70
2022/10/11 02:11:43;;;;;;;9.43;2.88;;;5.20;99.90;;;;;;5054841;28;20076;-71
2022/10/11 02:14:10;;;;;;;11.38;3.35;;;5.20;99.90;;;;;;5054834;28;20049;-71
2022/10/11 02:16:45;;;;;;;13.30;3.03;;;5.20;99.90;;;;;;5055279;28;20045;-69
2022/10/11 02:19:14;;;;;;;12.75;2.80;;;5.10;99.90;;;;;;5054546;28;20084;-70
2022/10/11 02:21:43;;;;;;;16.85;3.70;;;5.10;99.90;;;;;;5054698;28;20060;-70
2022/10/11 02:24:15;;;;;;;11.07;4.15;;;5.10;99.90;;;;;;5054625;28;20434;-69
2022/10/11 02:26:44;;;;;;;10.27;3.42;;;5.10;99.90;;;;;;5056265;28;20045;-69
2022/10/11 02:29:13;;;;;;;11.15;3.35;;;5.10;99.90;;;;;;5058264;28;20076;-70
2022/10/11 02:31:40;;;;;;;7.65;2.63;;;5.00;99.90;;;;;;5058846;28;20052;-70
2022/10/11 02:34:09;;;;;;;12.48;3.58;;;5.00;99.90;;;;;;5058656;28;20036;-70
2022/10/11 02:37:25;;;;;;;10.30;2.83;;;5.00;99.90;;;;;;5058121;28;20060;-69
2022/10/11 02:39:55;;;;;;;11.85;3.17;;;5.00;99.90;;;;;;5044808;28;20366;-69
2022/10/11 02:42:32;;;;;;;12.32;3.22;;;5.00;99.90;;;;;;5057934;28;20102;-70
2022/10/11 02:45:19;;;;;;;11.75;3.15;;;5.00;99.90;;;;;;5058506;28;20045;-69
2022/10/11 02:47:46;;;;;;;12.52;3.53;;;5.00;99.90;;;;;;5058511;28;20049;-70
2022/10/11 02:50:13;;;;;;;15.80;3.45;;;5.00;99.90;;;;;;5058528;28;20365;-70
2022/10/11 02:52:39;;;;;;;14.27;2.72;;;4.90;99.90;;;;;;5057791;28;20441;-70
2022/10/11 02:55:05;;;;;;;10.93;3.28;;;4.90;99.90;;;;;;5058184;28;20048;-69
2022/10/11 02:57:30;;;;;;;16.05;3.53;;;4.90;99.90;;;;;;5057642;28;20068;-70
2022/10/11 02:59:56;;;;;;;11.93;3.38;;;4.90;99.90;;;;;;5058450;28;20449;-70
2022/10/11 03:02:22;;;;;;;8.30;3.10;;;4.80;99.90;;;;;;5058178;28;20040;-70
2022/10/11 03:04:47;;;;;;;10.02;2.80;;;4.80;99.90;;;;;;5058186;28;20114;-71
2022/10/11 03:07:13;;;;;;;13.65;3.13;;;4.80;99.90;;;;;;5058828;28;20126;-71
2022/10/11 03:09:39;;;;;;;9.98;3.00;;;4.70;99.90;;;;;;5058667;28;20084;-70
2022/10/11 03:12:05;;;;;;;7.95;3.33;;;4.80;99.90;;;;;;5039498;28;20049;-69
2022/10/11 03:14:31;;;;;;;10.82;3.03;;;4.80;99.90;;;;;;5058007;28;20045;-71
2022/10/11 03:16:56;;;;;;;12.02;3.20;;;4.70;99.90;;;;;;5057721;28;20351;-71
2022/10/11 03:19:22;;;;;;;11.85;3.28;;;4.70;99.90;;;;;;5057553;28;20099;-69
2022/10/11 03:21:48;;;;;;;17.17;3.97;;;4.70;99.90;;;;;;5040545;28;20053;-69
2022/10/11 03:24:13;;;;;;;20.50;3.92;;;4.70;99.90;;;;;;5058113;28;20056;-70
2022/10/11 03:26:39;;;;;;;8.90;3.08;;;4.80;99.90;;;;;;5057756;28;20418;-70
2022/10/11 03:29:04;;;;;;;7.25;2.55;;;4.80;99.90;;;;;;5057454;28;20127;-70
2022/10/11 03:31:30;;;;;;;10.35;3.45;;;4.80;99.90;;;;;;5057856;28;20117;-71
2022/10/11 03:33:55;;;;;;;6.75;2.60;;;4.70;99.90;;;;;;5057680;28;20353;-69
2022/10/11 03:36:21;;;;;;;11.55;3.15;;;4.70;99.90;;;;;;5057498;28;20053;-69
2022/10/11 03:38:47;;;;;;;9.73;2.63;;;4.70;99.90;;;;;;5039355;28;20114;-70
2022/10/11 03:41:12;;;;;;;9.32;3.42;;;4.70;99.90;;;;;;5056955;28;20052;-71
2022/10/11 03:43:38;;;;;;;12.55;2.97;;;4.70;99.90;;;;;;5057079;28;20041;-71
2022/10/11 03:46:03;;;;;;;6.00;2.40;;;4.70;99.90;;;;;;5057931;28;20112;-70
2022/10/11 03:48:29;;;;;;;8.32;2.53;;;4.60;99.90;;;;;;5057512;28;20045;-69
2022/10/11 03:50:54;;;;;;;14.32;3.88;;;4.60;99.90;;;;;;5057744;28;20037;-70
2022/10/11 03:53:20;;;;;;;8.75;2.78;;;4.60;99.90;;;;;;5056995;28;20052;-70
2022/10/11 03:55:50;;;;;;;27.42;3.15;;;4.60;99.90;;;;;;5057085;28;20140;-70
2022/10/11 03:58:16;;;;;;;7.45;2.97;;;4.60;99.90;;;;;;5057566;28;20096;-69
2022/10/11 04:00:41;;;;;;;12.48;2.95;;;5.00;99.90;;;;;;5057676;28;20049;-70
2022/10/11 04:03:10;;;;;;;7.60;2.72;;;4.60;99.90;;;;;;5057349;28;20049;-68
2022/10/11 04:05:36;;;;;;;9.75;2.80;;;4.60;99.90;;;;;;5057077;28;20078;-70
2022/10/11 04:08:01;;;;;;;10.88;3.22;;;4.60;99.90;;;;;;5056068;28;20037;-70
2022/10/11 04:10:27;;;;;;;8.90;2.67;;;4.60;99.90;;;;;;5056765;28;20128;-71
2022/10/11 04:12:52;;;;;;;10.90;3.08;;;4.60;99.90;;;;;;5056841;28;20036;-69
2022/10/11 04:15:18;;;;;;;11.18;3.25;;;4.50;99.90;;;;;;5062440;28;20101;-70
2022/10/11 04:17:44;;;;;;;13.45;3.22;;;4.60;99.90;;;;;;5076581;28;20044;-71
2022/10/11 04:20:09;;;;;;;17.98;3.40;;;4.60;99.90;;;;;;5077496;28;20193;-71
2022/10/11 04:22:35;;;;;;;8.52;2.85;;;4.60;99.90;;;;;;5068608;28;20029;-70
2022/10/11 04:25:01;;;;;;;12.13;3.63;;;4.60;99.90;;;;;;5054996;28;20457;-69
2022/10/11 04:27:27;;;;;;;13.73;3.83;;;4.60;99.90;;;;;;5055508;28;20033;-70
2022/10/11 04:29:53;;;;;;;10.95;2.97;;;4.60;99.90;;;;;;5056553;28;20048;-71
2022/10/11 04:32:19;;;;;;;10.68;3.13;;;4.60;99.90;;;;;;5056634;28;20128;-69
2022/10/11 04:34:45;;;;;;;21.52;3.65;;;4.70;99.90;;;;;;5056863;28;20132;-69
2022/10/11 04:37:10;;;;;;;12.57;3.22;;;4.70;99.90;;;;;;5056750;28;20049;-71
2022/10/11 04:39:37;;;;;;;10.30;2.90;;;4.70;99.90;;;;;;5055734;28;20450;-70
2022/10/11 04:42:03;;;;;;;13.75;3.10;;;4.70;99.90;;;;;;5055721;28;20055;-71
2022/10/11 04:44:29;;;;;;;15.13;3.20;;;4.80;99.90;;;;;;5056096;28;20075;-70
2022/10/11 04:46:55;;;;;;;8.15;2.50;;;4.80;99.90;;;;;;5056038;28;20049;-69
2022/10/11 04:49:21;;;;;;;9.48;2.50;;;4.80;99.90;;;;;;5055723;28;20041;-71
2022/10/11 04:51:46;;;;;;;14.88;3.28;;;4.80;99.90;;;;;;5056385;28;20128;-70
2022/10/11 04:54:12;;;;;;;17.00;3.00;;;4.80;99.90;;;;;;5055397;28;20049;-68
2022/10/11 04:56:38;;;;;;;9.63;2.72;;;4.80;99.90;;;;;;5055889;28;20045;-71
2022/10/11 04:59:03;;;;;;;11.02;2.88;;;4.80;99.90;;;;;;5055627;28;20037;-69
2022/10/11 05:01:29;;;;;;;15.13;3.63;;;4.80;99.90;;;;;;5055832;28;20354;-70
2022/10/11 05:03:55;;;;;;;14.93;3.35;;;4.90;99.90;;;;;;5055705;28;20045;-70
2022/10/11 05:06:20;;;;;;;14.38;3.88;;;4.80;99.90;;;;;;5055977;28;20132;-70
2022/10/11 05:08:46;;;;;;;15.38;4.00;;;4.80;99.90;;;;;;5055495;28;20072;-71
2022/10/11 05:11:13;;;;;;;15.38;3.90;;;4.80;99.90;;;;;;5045371;28;20044;-71
2022/10/11 05:13:39;;;;;;;11.15;3.13;;;4.80;99.90;;;;;;5019742;28;20037;-71
2022/10/11 05:16:05;;;;;;;14.23;3.50;;;4.80;99.90;;;;;;5055507;28;20059;-70
2022/10/11 05:18:31;;;;;;;12.27;3.72;;;4.80;99.90;;;;;;5055069;28;20049;-71
2022/10/11 05:21:13;;;;;;;9.23;3.35;;;4.80;99.90;;;;;;5055083;28;20029;-70
2022/10/11 05:23:38;;;;;;;21.73;3.47;;;4.80;99.90;;;;;;5055210;28;20052;-70
2022/10/11 05:26:04;;;;;;;14.13;3.65;;;4.80;99.90;;;;;;5054970;28;20053;-71
2022/10/11 05:28:30;;;;;;;10.38;3.50;;;4.70;99.90;;;;;;5055434;28;20052;-71
2022/10/11 05:30:56;;;;;;;13.80;3.72;;;4.70;99.90;;;;;;5054976;28;20473;-70
2022/10/11 05:33:21;;;;;;;13.70;4.03;;;4.80;99.90;;;;;;5054994;28;20106;-70
2022/10/11 05:35:47;;;;;;;15.02;3.40;;;4.80;99.90;;;;;;5055103;28;20064;-69
2022/10/11 05:38:13;;;;;;;14.00;3.25;;;4.80;99.90;;;;;;5055165;28;20048;-70
2022/10/11 05:40:39;;;;;;;13.70;3.75;;;4.80;99.90;;;;;;5054464;28;20091;-70
2022/10/11 05:43:05;;;;;;;17.27;4.45;;;4.90;99.90;;;;;;5055060;28;20052;-71
2022/10/11 05:45:31;;;;;;;9.30;3.42;;;4.90;99.90;;;;;;5054767;28;20045;-71
2022/10/11 05:47:58;;;;;;;10.15;3.30;;;5.00;99.90;;;;;;5055244;28;20408;-70
2022/10/11 05:50:24;;;;;;;10.35;3.30;;;5.00;99.90;;;;;;5055252;28;20102;-70
2022/10/11 05:52:49;;;;;;;13.70;3.17;;;5.00;99.90;;;;;;5055149;28;20133;-70
2022/10/11 05:55:15;;;;;;;10.52;2.97;;;5.00;99.90;;;;;;5055056;28;20084;-70
2022/10/11 05:57:40;;;;;;;13.70;3.08;;;5.00;99.90;;;;;;5055747;28;20048;-69
2022/10/11 06:00:07;;;;;;;11.68;3.58;;;5.00;99.90;;;;;;5054722;28;20063;-71
2022/10/11 06:02:33;;;;;;;10.48;3.17;;;5.00;99.90;;;;;;5054141;28;20041;-71
2022/10/11 06:04:58;;;;;;;10.98;3.13;;;5.00;99.90;;;;;;5054725;28;20041;-71
2022/10/11 06:07:24;;;;;;;19.85;4.18;;;5.00;99.90;;;;;;5054771;28;20056;-70
2022/10/11 06:09:50;;;;;;;13.25;3.60;;;5.00;99.90;;;;;;5054452;28;20090;-71
2022/10/11 06:12:16;;;;;;;11.25;3.42;;;5.00;99.90;;;;;;5055116;28;20045;-71
2022/10/11 06:14:42;;;;;;;11.38;2.88;;;5.10;99.90;;;;;;5055527;28;20136;-70
2022/10/11 06:17:08;;;;;;;8.68;2.80;;;5.10;99.90;;;;;;5054336;28;20453;-70
2022/10/11 06:19:33;;;;;;;11.65;2.90;;;5.10;99.90;;;;;;5054660;28;20071;-72
2022/10/11 06:21:59;;;;;;;12.27;3.10;;;5.10;99.90;;;;;;5054668;28;20041;-71
2022/10/11 06:24:25;;;;;;;9.05;2.95;;;5.10;99.90;;;;;;5054637;28;20045;-70
2022/10/11 06:26:50;;;;;;;11.70;3.50;;;5.20;99.90;;;;;;5054751;28;20207;-71
2022/10/11 06:29:16;;;;;;;9.70;3.35;;;5.20;99.90;;;;;;5054243;28;20056;-71
2022/10/11 06:31:43;;;;;;;10.35;3.20;;;5.20;99.90;;;;;;5054583;28;20437;-71
2022/10/11 06:34:08;;;;;;;13.00;3.85;;;5.20;99.90;;;;;;5054844;28;20045;-71
2022/10/11 06:36:34;;;;;;;11.57;4.10;;;5.20;99.90;;;;;;5037256;28;20424;-70
2022/10/11 06:39:00;;;;;;;10.43;4.22;;;5.30;99.90;;;;;;5054621;28;20632;-70
2022/10/11 06:41:28;;;;;;;12.90;4.65;;;5.30;99.90;;;;;;5054580;28;20381;-71
2022/10/11 06:43:55;;;;;;;17.15;3.58;;;5.30;99.90;;;;;;5055251;28;20394;-71
2022/10/11 06:46:23;;;;;;;9.52;3.80;;;5.30;99.90;;;;;;5054300;28;20052;-71
2022/10/11 06:48:49;;;;;;;10.05;3.92;;;5.40;99.90;;;;;;5054813;28;20060;-70
2022/10/11 06:51:17;;;;;;;15.25;4.20;;;5.40;99.90;;;;;;5054543;28;20037;-70
2022/10/11 06:53:43;;;;;;;13.70;3.88;;;5.60;99.90;;;;;;5054622;28;20060;-69
2022/10/11 06:56:11;;;;;;;12.68;3.58;;;5.50;99.90;;;;;;5054577;28;20450;-69
2022/10/11 06:58:38;;;;;;;11.80;3.22;;;5.60;99.90;;;;;;5036667;28;20052;-71
2022/10/11 07:01:07;;;;;;;17.75;3.90;;;5.70;99.90;;;;;;5054012;28;20556;-70
2022/10/11 07:03:33;;;;;;;17.40;3.92;;;5.70;99.90;;;;;;5054885;28;20041;-70
2022/10/11 07:06:08;;;;;;;14.52;4.30;;;5.80;99.90;;;;;;5054294;28;20080;-71
2022/10/11 07:08:34;;;;;;;12.68;3.80;;;5.90;99.90;;;;;;5054507;28;20449;-70
2022/10/11 07:11:05;;;;;;;22.08;4.32;;;6.00;99.90;;;;;;5054415;28;20541;-70
2022/10/11 07:13:30;;;;;;;11.77;3.58;;;6.00;99.90;;;;;;5054756;28;20037;-70
2022/10/11 07:15:58;;;;;;;12.25;3.55;;;6.10;99.90;;;;;;5057743;28;20453;-71
2022/10/11 07:18:24;;;;;;;15.80;3.95;;;6.30;99.90;;;;;;5057866;28;20059;-70
2022/10/11 07:20:50;;;;;;;12.52;3.70;;;6.20;99.90;;;;;;5058507;28;20513;-70
2022/10/11 07:23:15;;;;;;;14.82;3.97;;;6.30;99.90;;;;;;5040343;28;20044;-71
2022/10/11 07:25:41;;;;;;;11.50;3.17;;;6.40;99.90;;;;;;5057849;28;20053;-69
2022/10/11 07:28:06;;;;;;;12.40;3.88;;;6.40;99.90;;;;;;5057107;28;20045;-70
2022/10/11 07:30:32;;;;;;;13.98;3.35;;;6.50;99.90;;;;;;5057490;28;20064;-70
2022/10/11 07:32:58;;;;;;;20.33;4.00;;;6.60;99.90;;;;;;5057531;28;20056;-71
2022/10/11 07:35:23;;;;;;;13.40;3.80;;;6.70;99.90;;;;;;5057550;28;20060;-70
2022/10/11 07:37:49;;;;;;;16.35;3.83;;;6.70;99.90;;;;;;5058139;28;20052;-70
2022/10/11 07:40:14;;;;;;;13.85;3.70;;;6.80;99.90;;;;;;5057286;28;20044;-69
2022/10/11 07:42:40;;;;;;;12.23;3.30;;;6.90;99.90;;;;;;5057456;28;20481;-70
2022/10/11 07:45:06;;;;;;;15.02;3.75;;;6.90;99.90;;;;;;5056712;28;20080;-69
2022/10/11 07:47:31;;;;;;;12.35;3.30;;;7.00;99.90;;;;;;5039993;28;20045;-70
2022/10/11 07:49:57;;;;;;;17.55;4.18;;;7.10;99.90;;;;;;5057096;28;20057;-70
2022/10/11 07:52:22;;;;;;;13.52;3.83;;;7.20;99.90;;;;;;5057169;28;20064;-71
2022/10/11 07:54:48;;;;;;;17.60;3.92;;;7.20;99.90;;;;;;5057279;28;20079;-70
2022/10/11 07:57:14;;;;;;;14.18;3.58;;;7.30;99.90;;;;;;5057482;28;20075;-69
2022/10/11 07:59:40;;;;;;;15.48;3.33;;;7.40;99.90;;;;;;5057264;28;20446;-70
2022/10/11 08:02:15;;;;;;;10.60;3.03;;;7.50;99.90;;;;;;5057704;28;20040;-70
2022/10/11 08:04:40;;;;;;;13.02;3.55;;;7.50;99.90;;;;;;5056555;28;20128;-70
2022/10/11 08:07:06;;;;;;;14.60;3.65;;;7.60;99.90;;;;;;5056690;28;20132;-70
2022/10/11 08:09:31;;;;;;;15.75;3.35;;;7.70;99.90;;;;;;5056843;28;20106;-72
2022/10/11 08:11:57;;;;;;;13.50;3.22;;;7.80;99.90;;;;;;5056443;28;20037;-70
2022/10/11 08:14:23;;;;;;;14.05;3.83;;;7.90;99.90;;;;;;5057238;28;20124;-70
2022/10/11 08:16:48;;;;;;;14.80;3.42;;;8.00;99.90;;;;;;5056859;28;20114;-70
2022/10/11 08:19:15;;;;;;;15.20;3.63;;;8.10;99.90;;;;;;5056525;28;20076;-69
2022/10/11 08:21:40;;;;;;;18.33;4.40;;;8.20;99.90;;;;;;5056392;28;20053;-70
2022/10/11 08:24:07;;;;;;;10.70;2.70;;;8.30;99.90;;;;;;5056128;28;20090;-70
2022/10/11 08:26:33;;;;;;;18.85;4.22;;;8.40;99.90;;;;;;5039302;28;20077;-71
2022/10/11 08:29:03;;;;;;;15.65;3.85;;;8.50;99.90;;;;;;5056271;28;20454;-70
2022/10/11 08:31:29;;;;;;;13.25;2.83;;;8.60;99.90;;;;;;5057046;28;20053;-70
2022/10/11 08:33:54;;;;;;;9.82;2.63;;;8.70;99.90;;;;;;5056471;28;20045;-69
2022/10/11 08:36:20;;;;;;;12.40;3.15;;;8.90;99.90;;;;;;5055691;28;20118;-71
2022/10/11 08:38:45;;;;;;;17.08;3.33;;;8.80;99.90;;;;;;5056164;28;20128;-70
2022/10/11 08:41:25;;;;;;;14.25;2.78;;;9.00;99.90;;;;;;5055821;28;20044;-70
2022/10/11 08:43:54;;;;;;;15.90;3.17;;;9.00;99.90;;;;;;5055966;28;20459;-70
2022/10/11 08:46:24;;;;;;;14.98;2.88;;;9.10;99.90;;;;;;5038694;28;20135;-69
2022/10/11 08:48:50;;;;;;;13.20;3.10;;;9.20;99.90;;;;;;5056337;28;20064;-70
2022/10/11 08:51:29;;;;;;;19.23;4.10;;;9.30;99.90;;;;;;5056274;28;20124;-71
2022/10/11 08:54:19;;;;;;;13.43;2.75;;;9.40;99.90;;;;;;5055180;28;20504;-70
2022/10/11 08:56:45;;;;;;;13.73;2.83;;;9.40;99.90;;;;;;5055996;28;20057;-71
2022/10/11 08:59:11;;;;;;;15.23;3.13;;;9.50;99.90;;;;;;5056107;28;20051;-70
2022/10/11 09:01:45;;;;;;;11.20;2.90;;;9.60;99.90;;;;;;5055759;28;20446;-70
2022/10/11 09:04:16;;;;;;;13.55;2.65;;;9.70;99.90;;;;;;5056198;28;20397;-70
2022/10/11 09:06:54;;;;;;;16.92;3.00;;;9.80;99.90;;;;;;5055688;28;20059;-70
2022/10/11 09:10:04;;;;;;;12.90;2.97;;;9.80;99.90;;;;;;5038024;28;20091;-72
2022/10/11 09:12:44;;;;;;;13.27;3.58;;;9.90;99.90;;;;;;5026724;28;20049;-70
2022/10/11 09:15:34;;;;;;;16.13;2.95;;;10.00;99.90;;;;;;5038238;28;20481;-73
2022/10/11 09:18:08;;;;;;;17.65;3.25;;;10.00;99.90;;;;;;5055504;28;20103;-71
2022/10/11 09:21:03;;;;;;;17.88;3.75;;;10.10;99.90;;;;;;5038366;28;20049;-71
2022/10/11 09:23:46;;;;;;;16.77;2.88;;;10.20;99.90;;;;;;5055747;28;20045;-70
2022/10/11 09:26:27;;;;;;;13.73;3.38;;;10.30;99.90;;;;;;5055129;28;20508;-71
2022/10/11 09:29:11;;;;;;;16.35;3.05;;;10.40;99.90;;;;;;5055295;28;20041;-71
2022/10/11 09:31:37;;;;;;;;;;;10.50;99.90;;;;;;5055938;28;20343;-70
2022/10/11 09:34:12;;;;;;;13.98;3.65;;;10.60;99.90;;;;;;5055358;28;19931;-71
2022/10/11 09:36:48;;;;;;;11.30;2.97;;;10.70;99.90;;;;;;5054686;28;20059;-71
2022/10/11 09:39:34;;;;;;;17.25;2.92;;;10.90;99.90;;;;;;5054765;28;20429;-69
2022/10/11 09:42:08;;;;;;;13.70;3.45;;;10.90;99.90;;;;;;5055030;28;20052;-70
2022/10/11 09:44:40;;;;;;;11.55;2.65;;;11.00;99.90;;;;;;5037568;28;20052;-72
2022/10/11 09:47:10;;;;;;;14.32;2.88;;;11.20;99.90;;;;;;5037943;28;20049;-72
2022/10/11 09:50:13;;;;;;;10.57;2.75;;;11.40;99.90;;;;;;5054510;28;20059;-69
2022/10/11 09:52:54;;;;;;;14.25;3.17;;;11.70;99.90;;;;;;5009427;28;20049;-71
2022/10/11 09:55:52;;;;;;;16.23;3.10;;;11.90;99.90;;;;;;5035266;28;20045;-70
2022/10/11 09:58:34;;;;;;;17.35;3.38;;;12.20;99.90;;;;;;5034847;28;20088;-70
2022/10/11 10:01:04;;;;;;;16.00;3.05;;;12.40;99.90;;;;;;5035103;28;20053;-71
2022/10/11 10:03:34;;;;;;;14.93;2.55;;;12.50;99.90;;;;;;5035707;28;20421;-71
2022/10/11 10:06:06;;;;;;;13.40;2.72;;;12.50;99.90;;;;;;5040669;28;20051;-70
2022/10/11 10:08:32;;;;;;;11.32;3.13;;;12.50;99.90;;;;;;5054648;28;20045;-72
2022/10/11 10:11:07;;;;;;;12.23;2.88;;;12.60;99.90;;;;;;5054768;28;20049;-70
2022/10/11 10:13:43;;;;;;;14.02;3.30;;;12.60;99.90;;;;;;5054740;28;20056;-71
2022/10/11 10:16:31;;;;;;;12.13;2.40;;;12.60;99.90;;;;;;5055050;28;20048;-70
2022/10/11 10:19:02;;;;;;;13.75;2.53;;;12.60;99.90;;;;;;5054920;28;20045;-71
2022/10/11 10:21:31;;;;;;;11.23;2.65;;;12.60;99.90;;;;;;5054734;28;20119;-71
2022/10/11 10:24:01;;;;;;;12.90;3.03;;;12.70;99.90;;;;;;5037028;28;20047;-70
2022/10/11 10:26:28;;;;;;;10.43;2.80;;;12.70;99.90;;;;;;5054155;28;20509;-72
2022/10/11 10:29:00;;;;;;;11.40;3.08;;;12.70;99.90;;;;;;5054165;28;20049;-72
2022/10/11 10:31:34;;;;;;;12.88;2.60;;;12.70;99.90;;;;;;5054609;28;20045;-70
2022/10/11 10:34:01;;;;;;;14.15;2.55;;;12.80;99.90;;;;;;5054858;28;20075;-72
2022/10/11 10:36:35;;;;;;;10.70;2.55;;;12.90;99.90;;;;;;5055341;28;20087;-70
2022/10/11 10:39:20;;;;;;;10.00;2.63;;;13.00;99.90;;;;;;5054463;28;20105;-70
2022/10/11 10:41:46;;;;;;;17.27;3.03;;;13.10;99.90;;;;;;5054911;28;20369;-70
2022/10/11 10:44:14;;;;;;;15.52;2.60;;;13.20;99.90;;;;;;5054798;28;20053;-70
2022/10/11 10:46:43;;;;;;;12.30;2.42;;;13.40;99.90;;;;;;5054500;28;20195;-70
2022/10/11 10:49:41;;;;;;;13.57;3.33;;;13.40;99.90;;;;;;5053471;28;20044;-69
2022/10/11 10:52:25;;;;;;;11.85;2.63;;;13.60;99.90;;;;;;5052980;28;20089;-71
2022/10/11 10:55:06;;;;;;;15.27;3.45;;;13.70;99.90;;;;;;5047975;28;20049;-71
2022/10/11 10:57:42;;;;;;;9.93;2.47;;;13.80;99.90;;;;;;5038255;28;20046;-71
2022/10/11 11:00:19;;;;;;;11.77;2.40;;;13.90;99.90;;;;;;5023193;28;20429;-70
2022/10/11 11:02:57;;;;;;;11.10;3.08;;;14.00;99.90;;;;;;5038805;28;20133;-72
2022/10/11 11:05:44;;;;;;;17.83;3.45;;;14.20;99.90;;;;;;5037958;28;20053;-72
2022/10/11 11:08:37;;;;;;;12.23;2.80;;;14.30;99.90;;;;;;5037990;28;20053;-72
2022/10/11 11:11:17;;;;;;;15.73;3.03;;;14.50;99.90;;;;;;5037857;28;20049;-71
2022/10/11 11:13:52;;;;;;;11.73;2.30;;;14.60;99.90;;;;;;5038006;28;20373;-71
2022/10/11 11:16:41;;;;;;;12.43;2.75;;;14.70;99.90;;;;;;5037938;28;20033;-70
2022/10/11 11:19:25;;;;;;;17.25;2.80;;;14.80;99.90;;;;;;5037917;28;20124;-70
2022/10/11 11:22:09;;;;;;;13.30;2.88;;;14.90;99.90;;;;;;5037941;28;20132;-71
2022/10/11 11:24:46;;;;;;;12.35;2.75;;;15.00;99.90;;;;;;5050038;28;20049;-71
2022/10/11 11:27:21;;;;;;;10.80;2.47;;;15.10;99.90;;;;;;5057634;28;20048;-72
2022/10/11 11:29:58;;;;;;;12.98;2.10;;;15.10;99.90;;;;;;5039756;28;20426;-71
2022/10/11 11:32:39;;;;;;;9.02;2.30;;;15.20;99.90;;;;;;5057538;28;20041;-71
2022/10/11 11:35:15;;;;;;;13.13;2.38;;;15.20;99.90;;;;;;5057353;28;20061;-71
2022/10/11 11:37:43;;;;;;;8.05;2.45;;;15.30;99.90;;;;;;5057554;28;20092;-71
2022/10/11 11:40:43;;;;;;;10.48;2.10;;;15.30;99.90;;;;;;5057149;28;20465;-71
2022/10/11 11:43:23;;;;;;;14.07;2.58;;;15.40;99.90;;;;;;5054475;28;20053;-70
2022/10/11 11:45:59;;;;;;;6.72;1.80;;;15.50;99.90;;;;;;5057562;28;20088;-70
2022/10/11 11:48:25;;;;;;;10.15;2.15;;;15.40;99.90;;;;;;5057465;28;20106;-70
2022/10/11 11:51:28;;;;;;;11.88;1.85;;;15.50;99.90;;;;;;5057546;28;20052;-70
2022/10/11 11:54:30;;;;;;;11.48;3.38;;;15.50;99.90;;;;;;5056731;28;20043;-71
2022/10/11 11:57:11;;;;;;;9.02;2.05;;;15.60;99.90;;;;;;5039740;28;20045;-70
2022/10/11 11:59:50;;;;;;;13.18;2.63;;;15.80;99.90;;;;;;5056036;28;20056;-71
2022/10/11 12:02:27;;;;;;;11.55;2.28;;;15.80;99.90;;;;;;5057114;28;20052;-69
2022/10/11 12:04:53;;;;;;;10.60;2.70;;;15.80;99.90;;;;;;5057057;28;20041;-71
2022/10/11 12:07:25;;;;;;;10.13;2.05;;;16.00;99.90;;;;;;5039474;28;20044;-71
2022/10/11 12:09:53;;;;;;;10.27;2.05;;;16.10;99.90;;;;;;5056446;28;20048;-71
2022/10/11 12:12:28;;;;;;;8.38;2.10;;;16.20;99.90;;;;;;5053863;28;20033;-70
2022/10/11 12:15:09;;;;;;;11.80;2.40;;;16.30;99.90;;;;;;5044750;28;20483;-72
2022/10/11 12:17:56;;;;;;;11.15;2.22;;;16.30;99.90;;;;;;5038878;28;20052;-71
2022/10/11 12:20:29;;;;;;;13.05;2.63;;;16.20;99.90;;;;;;5056677;28;20132;-70
2022/10/11 12:22:58;;;;;;;7.57;1.90;;;16.10;99.90;;;;;;5056333;28;20442;-70
2022/10/11 12:25:32;;;;;;;13.40;2.08;;;16.10;99.90;;;;;;5056573;28;20045;-71
2022/10/11 12:28:22;;;;;;;8.75;2.20;;;16.00;99.90;;;;;;5055928;28;20492;-71
2022/10/11 12:30:49;;;;;;;12.73;2.38;;;16.10;99.90;;;;;;5027010;28;20045;-72
2022/10/11 12:33:31;;;;;;;14.10;2.33;;;16.20;99.90;;;;;;5056222;28;20113;-72
2022/10/11 12:36:20;;;;;;;8.32;1.95;;;16.30;99.90;;;;;;5055059;28;20071;-70
2022/10/11 12:38:46;;;;;;;10.82;2.47;;;16.20;99.90;;;;;;5055700;28;20415;-69
2022/10/11 12:41:12;;;;;;;8.13;1.90;;;16.30;99.90;;;;;;5055709;28;20124;-70
2022/10/11 12:43:46;;;;;;;7.78;2.13;;;16.30;99.90;;;;;;5038485;28;20049;-68
2022/10/11 12:46:27;;;;;;;8.25;1.75;;;16.30;99.90;;;;;;5056059;28;20084;-70
2022/10/11 12:48:56;;;;;;;11.30;2.55;;;16.50;99.90;;;;;;5022063;28;20059;-71
2022/10/11 12:51:49;;;;;;;8.68;2.20;;;16.60;99.90;;;;;;5037820;28;20461;-69
2022/10/11 12:54:32;;;;;;;10.18;2.10;;;16.70;99.90;;;;;;5055385;28;20041;-70
2022/10/11 12:57:37;;;;;;;9.57;2.38;;;16.70;99.90;;;;;;5055832;28;20045;-71
2022/10/11 13:00:31;;;;;;;10.63;2.20;;;16.80;99.90;;;;;;5055570;28;20060;-70
2022/10/11 13:03:00;;;;;;;6.63;1.98;;;16.90;99.90;;;;;;5055795;28;20049;-70
2022/10/11 13:05:37;;;;;;;6.60;2.08;;;16.90;99.90;;;;;;5055768;28;20052;-73
2022/10/11 13:08:08;;;;;;;10.15;1.88;;;16.90;99.90;;;;;;5045140;28;20060;-71